Aérodrome :
LOGIN :

S'inscrire | Disclaimer

   EN    FR    IT 

 










Légende :    VFR   VFR Marginal   IFR   IFR Intensif   IFR Très Intensif
Visi : 
Plafond : 
>= 8 km
>= 3000ft
5 à 8 km
1000 à 3000 ft
1500m à 5 km
500 à 1000 ft
800 à 1500m
200 à 500 ft
< 800m
< 200 ft
Symboles :   Orages  Brouillard  Fortes neiges  Fortes précipitations  Vent > 20 kt
SIGMETs :   Divers  Orages  Givrage  Turbulence  Onde Orograph.  Cendres Volcan.






- Altitude de l'aérodrome : 154 ft
- Code IATA : SZZ


EPSC - Szczecin Goleniow

DERNIER METAR :
  • 300530Z 31003KT 0250 R31/0600N FG VV001 07/07 Q1016

METARs EXPIRÉS :
  • 300500Z 32002KT 0300 R31/0900D FG VV001 07/07 Q1016
  • 300430Z VRB01KT 0200 R31/0600N FG VV001 08/08 Q1016
  • 300400Z VRB01KT 0350 R31/1500N FG VV001 08/07 Q1016
  • 300330Z 33002KT 0500 R31/0900U FG VV001 07/07 Q1016
  • 300300Z 32003KT 290V050 0400 R31/0900U FG VV001 08/07 Q1016

TAF TAF EPSC
Valide du 30 à 06h jusqu'au 01 à 06h UTC


300530Z 3006/0106 VRB04KT 0300 FG BKN001
PROB40
TEMPO 3006/3010 3000 BR SCT003 BKN006
BECMG 3008/3011 9999 SCT030
PROB40 3022/0106 0900 FG OVC002



MET'MAP, la Météo Aéronautique d'un coup d'oeil ! - Copyright ORBIFLY Décembre 2007 - Disclaimer

ORBIFLY MET'MAP TEAM :

Programmation & Développement : Alexandra Zaïnal
Sur une idée originale de : Baudouin d'Aumeries
Assistance à la programmation : Marc-Olivier Méhu
Soutien technique & logistique : Manuel Goepfert

Contact : metmap@orbifly.com




SOURCES & CREDITS :

   NOAA